Latest Weather Observations for Mount Lofty

IDS60801

Issued at 3:01 pm CST Sunday 29 May 2016 (issued every 30 minutes, with the page automatically refreshed every 10 minutes)

About weather observations | Map of weather stations | Latest weather observations for SA | Other Formats
Station Details ID: 023842 Name: MOUNT LOFTY Lat: -34.98 Lon: 138.71 Height: 685.0 m
Data from the previous 72 hours. | See also: Recent months at Mount Lofty
Date/Time
CST
Temp
°C
App
Temp
°C
Dew
Point
Rel
Hum
%
Delta-T
°C
Wind Press
QNH
hPa
Press
MSL
hPa
Rain
since 9 am
mm
Dir
 
Spd
km/h
Gust
km/h
Spd
kts
Gust
kts
29/03:00pm 9.4 7.3 5.8 78 1.7 NNE 6 15 3 8 - - 0.0
29/02:30pm 10.3 7.8 6.5 77 1.9 N 9 17 5 9 - - 0.0
29/02:00pm 10.3 8.0 5.7 73 2.2 N 7 17 4 9 - - 0.0
29/01:30pm 10.2 7.4 5.0 70 2.4 NNW 9 15 5 8 - - 0.0
29/01:00pm 9.9 6.6 4.5 69 2.5 NNW 11 17 6 9 - - 0.0
29/12:30pm 9.9 7.3 4.3 68 2.6 N 7 15 4 8 - - 0.0
29/12:00pm 10.0 7.1 4.8 70 2.4 N 9 15 5 8 - - 0.0
29/11:30am 9.9 7.5 5.1 72 2.3 N 7 11 4 6 - - 0.0
29/11:00am 9.3 6.3 4.3 71 2.3 N 9 17 5 9 - - 0.0
29/10:30am 8.9 6.2 3.5 69 2.4 N 7 13 4 7 - - 0.0
29/10:00am 9.0 5.9 3.8 70 2.4 N 9 17 5 9 - - 0.0
29/09:30am 8.1 4.9 3.0 70 2.3 N 9 15 5 8 - - 0.0
29/09:00am 7.7 4.4 2.6 70 2.2 NNE 9 20 5 11 - - 0.2
29/08:30am 6.5 3.6 2.4 75 1.8 ENE 7 17 4 9 - - 0.2
29/08:00am 6.5 3.7 2.0 73 1.9 ENE 6 11 3 6 - - 0.2
29/07:30am 6.8 3.8 1.9 71 2.1 NE 7 15 4 8 - - 0.2
29/07:00am 6.6 3.6 1.7 71 2.1 NE 7 15 4 8 - - 0.2
29/06:30am 6.5 3.7 1.8 72 2.0 NE 6 11 3 6 - - 0.2
29/06:00am 6.6 3.8 1.9 72 2.0 NNE 6 13 3 7 - - 0.2
29/05:30am 6.0 3.2 1.9 75 1.7 NE 6 9 3 5 - - 0.2
29/05:00am 5.8 3.0 2.3 78 1.5 ENE 6 11 3 6 - - 0.2
29/04:30am 5.1 2.8 2.5 83 1.1 ENE 4 9 2 5 - - 0.2
29/04:00am 4.9 2.6 2.6 85 1.0 E 4 7 2 4 - - 0.2
29/03:30am 4.9 2.6 2.9 87 0.9 E 4 6 2 3 - - 0.2
29/03:00am 5.0 2.8 3.2 88 0.8 E 4 6 2 3 - - 0.2
29/02:30am 6.0 3.8 3.3 83 1.2 ENE 4 7 2 4 - - 0.2
29/02:00am 6.1 4.0 3.9 86 1.0 E 4 9 2 5 - - 0.2
29/01:30am 5.9 3.7 3.6 85 1.0 ESE 4 6 2 3 - - 0.2
29/01:00am 6.0 3.8 3.5 84 1.1 E 4 6 2 3 - - 0.2
29/12:30am 6.2 4.0 3.4 82 1.2 ESE 4 6 2 3 - - 0.2
29/12:00am 6.1 4.0 3.9 86 1.0 ESE 4 6 2 3 - - 0.2
 
Date/Time
CST
Temp
°C
App
Temp
°C
Dew
Point
Rel
Hum
%
Delta-T
°C
Wind Press
QNH
hPa
Press
MSL
hPa
Rain
since 9 am
mm
Dir
 
Spd
km/h
Gust
km/h
Spd
kts
Gust
kts
28/11:30pm 6.2 5.0 4.4 88 0.8 CALM 0 0 0 0 - - 0.2
28/11:00pm 6.3 4.7 4.5 88 0.8 E 2 4 1 2 - - 0.2
28/10:30pm 6.5 4.6 4.8 89 0.8 ESE 4 7 2 4 - - 0.2
28/10:00pm 6.4 4.5 5.0 91 0.6 ESE 4 6 2 3 - - 0.2
28/09:30pm 6.5 4.7 5.6 94 0.4 ESE 4 7 2 4 - - 0.2
28/09:00pm 6.3 4.5 5.6 95 0.3 ESE 4 6 2 3 - - 0.2
28/08:30pm 6.2 4.4 5.6 96 0.3 ESE 4 6 2 3 - - 0.2
28/08:00pm 6.0 4.2 5.3 95 0.3 ESE 4 6 2 3 - - 0.2
28/07:30pm 6.1 4.3 5.2 94 0.4 ESE 4 7 2 4 - - 0.2
28/07:00pm 6.7 4.6 5.8 94 0.4 ESE 6 9 3 5 - - 0.2
28/06:30pm 7.2 5.2 6.1 93 0.5 ESE 6 7 3 4 - - 0.2
28/06:00pm 7.5 5.3 6.3 92 0.6 ESE 7 11 4 6 - - 0.2
28/05:30pm 7.9 5.8 6.5 91 0.7 ESE 7 11 4 6 - - 0.2
28/05:00pm 8.1 5.9 6.4 89 0.8 ESE 7 11 4 6 - - 0.2
28/04:30pm 8.4 6.3 6.5 88 0.9 ESE 7 13 4 7 - - 0.2
28/04:00pm 8.9 6.7 6.3 84 1.2 ESE 7 13 4 7 - - 0.2
28/03:30pm 9.4 7.4 6.3 81 1.5 ESE 6 13 3 7 - - 0.2
28/03:00pm 10.5 8.9 6.3 75 2.0 E 4 13 2 7 - - 0.2
28/02:30pm 11.0 9.6 7.3 78 1.8 ESE 4 7 2 4 - - 0.2
28/02:00pm 9.5 7.4 5.7 77 1.8 ESE 6 11 3 6 - - 0.2
28/01:30pm 11.1 9.4 7.4 78 1.8 ESE 6 13 3 7 - - 0.2
28/01:00pm 10.0 7.9 5.8 75 2.0 SE 6 13 3 7 - - 0.2
28/12:30pm 9.9 7.6 5.9 76 1.9 SE 7 17 4 9 - - 0.2
28/12:00pm 9.2 7.4 5.6 78 1.7 SE 4 15 2 8 - - 0.2
28/11:30am 9.2 7.1 5.9 80 1.6 SSE 6 13 3 7 - - 0.2
28/11:00am 9.2 6.2 5.8 79 1.6 ESE 11 22 6 12 - - 0.2
28/10:30am 8.6 5.5 5.7 82 1.4 SE 11 24 6 13 - - 0.2
28/10:00am 8.1 4.6 5.6 84 1.2 SE 13 22 7 12 - - 0.0
28/09:30am 7.4 3.5 5.5 88 0.9 ESE 15 28 8 15 - - 0.0
28/09:00am 6.6 2.4 5.9 95 0.3 ESE 17 35 9 19 - - 22.6
28/08:30am 6.3 2.9 6.0 98 0.1 ESE 13 28 7 15 - - 22.6
28/08:00am 5.9 2.4 5.6 98 0.1 SE 13 24 7 13 - - 22.6
28/07:30am 6.2 2.8 5.9 98 0.1 ESE 13 28 7 15 - - 22.6
28/07:00am 6.9 4.0 6.6 98 0.1 SE 11 24 6 13 - - 22.6
28/06:30am 7.3 4.9 7.0 98 0.1 SE 9 22 5 12 - - 22.6
28/06:00am 7.4 5.0 7.1 98 0.1 SE 9 26 5 14 - - 22.6
28/05:30am 7.8 5.1 7.5 98 0.1 SSE 11 39 6 21 - - 22.6
28/05:00am 8.0 5.4 7.7 98 0.1 S 11 26 6 14 - - 22.4
28/04:30am 8.0 5.8 7.7 98 0.1 WSW 9 19 5 10 - - 22.4
28/04:00am 7.8 5.5 7.5 98 0.1 WSW 9 19 5 10 - - 22.4
28/03:30am 7.7 5.8 7.4 98 0.1 W 7 17 4 9 - - 22.4
28/03:00am 7.6 4.9 7.3 98 0.1 WSW 11 22 6 12 - - 22.4
28/02:30am 7.2 5.2 6.9 98 0.1 W 7 13 4 7 - - 22.4
28/02:00am 7.0 4.5 6.6 97 0.2 W 9 17 5 9 - - 22.4
28/01:30am 7.2 4.8 6.8 97 0.2 W 9 15 5 8 - - 22.4
28/01:00am 7.1 4.6 6.7 97 0.2 W 9 20 5 11 - - 22.4
28/12:30am 6.9 3.9 6.2 95 0.3 W 11 20 6 11 - - 21.4
28/12:00am 6.8 4.2 6.2 96 0.3 W 9 15 5 8 - - 21.4
 
Date/Time
CST
Temp
°C
App
Temp
°C
Dew
Point
Rel
Hum
%
Delta-T
°C
Wind Press
QNH
hPa
Press
MSL
hPa
Rain
since 9 am
mm
Dir
 
Spd
km/h
Gust
km/h
Spd
kts
Gust
kts
27/11:30pm 6.6 3.3 6.2 97 0.2 W 13 20 7 11 - - 21.4
27/11:00pm 6.9 4.0 6.6 98 0.1 W 11 26 6 14 - - 21.4
27/10:30pm 6.4 3.0 6.1 98 0.1 W 13 19 7 10 - - 21.4
27/10:00pm 6.2 2.4 5.9 98 0.1 W 15 28 8 15 - - 21.4
27/09:30pm 5.8 1.6 5.5 98 0.1 WSW 17 32 9 17 - - 21.4
27/09:00pm 5.5 1.2 5.1 97 0.2 WSW 17 33 9 18 - - 21.4
27/08:30pm 5.4 0.7 5.0 97 0.2 WSW 19 33 10 18 - - 21.2
27/08:00pm 5.6 0.7 5.2 97 0.2 WSW 20 43 11 23 - - 21.0
27/07:30pm 5.8 1.2 5.4 97 0.2 WSW 19 35 10 19 - - 20.0
27/07:00pm 6.2 2.0 5.9 98 0.1 W 17 39 9 21 - - 18.6
27/06:30pm 6.1 2.3 5.7 97 0.2 W 15 30 8 16 - - 18.4
27/06:00pm 5.6 1.3 5.2 97 0.2 W 17 37 9 20 - - 18.2
27/05:30pm 6.2 2.3 5.5 95 0.3 W 15 28 8 15 - - 17.6
27/05:00pm 5.7 1.8 5.3 97 0.2 W 15 32 8 17 - - 17.6
27/04:30pm 5.9 2.1 5.6 98 0.1 W 15 28 8 15 - - 17.6
27/04:00pm 5.2 1.2 4.9 98 0.1 W 15 22 8 12 - - 17.6
27/03:30pm 6.4 3.0 6.1 98 0.1 W 13 32 7 17 - - 15.6
27/03:00pm 6.2 2.8 5.9 98 0.1 W 13 26 7 14 - - 15.4
27/02:30pm 6.3 2.9 6.0 98 0.1 W 13 24 7 13 - - 15.4
27/02:00pm 5.8 3.1 5.5 98 0.1 W 9 17 5 9 - - 15.4
27/01:30pm 5.7 1.1 5.4 98 0.1 W 19 37 10 20 - - 14.8
27/01:00pm 6.8 3.1 6.5 98 0.1 W 15 35 8 19 - - 11.6
27/12:30pm 6.9 3.6 6.6 98 0.1 W 13 22 7 12 - - 6.6
27/12:00pm 6.6 2.1 6.3 98 0.1 WNW 19 33 10 18 - - 5.6
27/11:30am 7.6 4.5 7.3 98 0.1 W 13 26 7 14 - - 3.4
27/11:00am 7.1 3.9 6.8 98 0.1 W 13 24 7 13 - - 3.4
27/10:30am 8.9 5.4 8.6 98 0.2 WNW 17 35 9 19 - - 0.0
27/10:00am 8.7 5.1 8.4 98 0.2 WNW 17 28 9 15 - - 0.0
27/09:30am 8.8 5.2 8.5 98 0.2 WNW 17 33 9 18 - - 0.0
27/09:00am 8.6 4.6 8.3 98 0.2 WNW 19 32 10 17 - - 10.6
27/08:30am 8.3 4.6 8.0 98 0.1 WNW 17 44 9 24 - - 10.6
27/08:00am 8.4 4.2 8.1 98 0.1 WNW 20 39 11 21 - - 10.4
27/07:30am 8.1 3.8 7.8 98 0.1 WNW 20 35 11 19 - - 10.4
27/07:00am 8.1 3.8 7.8 98 0.1 WNW 20 37 11 20 - - 10.4
27/06:30am 8.1 3.0 7.8 98 0.1 WNW 24 43 13 23 - - 10.0
27/06:19am 8.3 2.5 8.0 98 0.1 WNW 28 50 15 27 - - 9.8
27/06:00am 8.7 3.8 8.4 98 0.2 WNW 24 46 13 25 - - 9.6
27/05:30am 8.7 4.2 8.4 98 0.2 WNW 22 37 12 20 - - 9.4
27/05:00am 8.8 3.9 8.5 98 0.2 WNW 24 39 13 21 - - 8.8
27/04:30am 8.3 4.2 8.0 98 0.1 WNW 19 35 10 19 - - 8.6
27/04:00am 8.5 4.9 8.2 98 0.1 WNW 17 35 9 19 - - 7.8
27/03:30am 8.7 5.1 8.4 98 0.2 WNW 17 30 9 16 - - 6.2
27/03:00am 8.7 5.1 8.4 98 0.2 NW 17 33 9 18 - - 4.4
27/02:30am 8.7 5.5 8.4 98 0.2 NW 15 26 8 14 - - 1.2
27/02:00am 8.7 5.5 8.4 98 0.2 WNW 15 24 8 13 - - 0.2
27/01:30am 8.9 6.1 8.6 98 0.2 WNW 13 26 7 14 - - 0.2
27/01:00am 8.9 6.9 8.5 97 0.2 WNW 9 20 5 11 - - 0.2
27/12:30am 8.7 6.2 8.3 97 0.2 WNW 11 19 6 10 - - 0.2
27/12:00am 8.5 6.9 7.9 96 0.3 W 6 11 3 6 - - 0.2
 
Date/Time
CST
Temp
°C
App
Temp
°C
Dew
Point
Rel
Hum
%
Delta-T
°C
Wind Press
QNH
hPa
Press
MSL
hPa
Rain
since 9 am
mm
Dir
 
Spd
km/h
Gust
km/h
Spd
kts
Gust
kts
26/11:30pm 8.3 6.4 7.7 96 0.3 W 7 13 4 7 - - 0.2
26/11:00pm 8.6 6.4 8.0 96 0.3 W 9 19 5 10 - - 0.2
26/10:30pm 8.6 6.4 8.0 96 0.3 W 9 17 5 9 - - 0.2
26/10:00pm 8.6 6.4 7.8 95 0.4 W 9 17 5 9 - - 0.2
26/09:30pm 8.7 6.5 7.9 95 0.4 W 9 15 5 8 - - 0.2
26/09:00pm 8.8 7.0 7.9 94 0.4 W 7 20 4 11 - - 0.2
26/08:30pm 8.9 7.1 8.0 94 0.4 W 7 13 4 7 - - 0.2
26/08:00pm 8.9 7.1 7.8 93 0.5 W 7 13 4 7 - - 0.2
26/07:30pm 8.9 7.0 7.7 92 0.6 W 7 13 4 7 - - 0.2
26/07:00pm 8.7 6.9 7.3 91 0.7 W 6 11 3 6 - - 0.2
26/06:30pm 8.6 6.9 7.4 92 0.6 W 6 9 3 5 - - 0.2
26/06:00pm 8.7 7.0 7.5 92 0.6 W 6 9 3 5 - - 0.2
26/05:30pm 8.8 6.9 6.9 88 0.9 W 6 13 3 7 - - 0.2
26/05:00pm 9.0 6.9 6.6 85 1.2 W 7 13 4 7 - - 0.2
26/04:30pm 10.0 8.0 6.9 81 1.5 W 7 15 4 8 - - 0.2
26/04:00pm 10.2 8.2 6.9 80 1.6 W 7 11 4 6 - - 0.2
26/03:30pm 9.5 7.3 6.2 80 1.6 W 7 13 4 7 - - 0.2

Other Formats:

Comma delimited format used in spreadsheet applications
http://www.bom.gov.au/fwo/IDS60801/IDS60801.95678.axf

JavaScript Object Notation format (JSON) in row-major order
http://www.bom.gov.au/fwo/IDS60801/IDS60801.95678.json